CYMX

Montreal International (Mirabel) Airport

Montréal, Quebec, Canada
METAR CYMX 181600Z 05005KT 020V080 5SM -SN BKN043 OVC050 M13/M16 A3002 RMK SN3SC3SC2 SLP175
Observed Flight Rules
Dec-18 @ 16:00 UTC (35 minutes ago) Marginal Visual Flight Rules
Wind Visibility Clouds Conditions
50° at 5 knots 5 miles
  • Broken at 4,300' AGL
  • Overcast at 5,000' AGL
  • Light Snow
Temperatures Readings
Current -13°C / 9°F
Dewpoint -16°C / 3°F
Humidity 78%
Altimeter 30.02" Hg
Pressure 1017.5 hPa
Elevation 82
METAR CYMX 181600Z 05005KT 020V080 5SM -SN BKN043 OVC050 M13/M16 A3002 RMK SN3SC3SC2 SLP175
Observed Flight Rules
Dec-18 @ 16:00 UTC
(35 minutes ago)
MVFR
Wind Visibility
50° at 5 knots 5 miles
Clouds
  • Broken at 4,300' AGL
  • Overcast at 5,000' AGL
Conditions
  • Light Snow
Temperature Dewpoint
-13°C / 9°F -16°C / 3°F
Humidity Altimeter Pressure
78% 30.02" Hg 1017.5 hPa